Time;durP1;ratioP1;P1;durP2;ratioP2;P2;SDS_P1;SDS_P2;PMS_P1;PMS_P2;Temp;Humidity;BMP_temperature;BMP_pressure;BME280_temperature;BME280_humidity;BME280_pressure;Samples;Min_cycle;Max_cycle;Signal;HPM_P1;HPM_P2
2021/09/24 00:01:34;;;;;;;6.72;4.20;;;;;;;12.92;71.74;99182.63;5146688;27;20082;-96
2021/09/24 00:04:00;;;;;;;5.80;3.78;;;;;;;12.92;71.73;99189.75;5145763;27;20039;-94
2021/09/24 00:06:26;;;;;;;6.55;3.97;;;;;;;12.92;73.01;99195.09;5144315;27;20047;-95
2021/09/24 00:08:52;;;;;;;7.90;4.20;;;;;;;12.85;72.81;99196.19;5124575;28;20098;-95
2021/09/24 00:11:18;;;;;;;6.90;4.05;;;;;;;13.05;72.68;99206.28;5121895;28;20074;-92
2021/09/24 00:13:46;;;;;;;7.57;3.92;;;;;;;12.84;73.05;99189.97;5123598;28;20047;-95
2021/09/24 00:16:12;;;;;;;8.00;4.40;;;;;;;12.99;73.20;99220.69;5124691;28;20032;-94
2021/09/24 00:18:38;;;;;;;7.88;4.15;;;;;;;12.73;73.71;99184.09;5123318;28;20082;-95
2021/09/24 00:21:04;;;;;;;8.20;4.82;;;;;;;12.77;73.63;99204.41;5124590;28;20043;-95
2021/09/24 00:23:30;;;;;;;6.85;4.00;;;;;;;12.63;73.83;99193.28;5125303;28;20039;-95
2021/09/24 00:25:56;;;;;;;6.15;3.90;;;;;;;12.71;73.75;99212.63;5125525;28;20046;-95
2021/09/24 00:28:22;;;;;;;7.05;4.22;;;;;;;12.67;73.65;99210.94;5125924;28;20055;-95
2021/09/24 00:30:50;;;;;;;8.57;4.07;;;;;;;12.66;73.91;99217.19;5124814;28;20051;-95
2021/09/24 00:33:16;;;;;;;7.55;4.30;;;;;;;12.37;74.70;99172.66;5125856;28;20044;-95
2021/09/24 00:35:42;;;;;;;7.18;4.00;;;;;;;12.47;74.86;99192.81;5124463;28;20051;-95
2021/09/24 00:38:08;;;;;;;8.05;4.13;;;;;;;12.48;75.54;99207.91;5124316;28;20040;-96
2021/09/24 00:40:36;;;;;;;7.25;4.13;;;;;;;12.42;75.56;99214.28;5123601;28;20543;-94
2021/09/24 00:43:03;;;;;;;8.40;4.40;;;;;;;12.41;75.82;99215.22;5126001;28;20051;-96
2021/09/24 00:45:29;;;;;;;7.70;4.25;;;;;;;12.21;75.92;99177.53;5124588;28;20052;-94
2021/09/24 00:47:56;;;;;;;6.90;4.10;;;;;;;12.27;76.15;99198.69;5125106;28;20054;-96
2021/09/24 00:50:23;;;;;;;10.20;4.68;;;;;;;12.18;76.17;99185.63;5124806;28;20126;-94
2021/09/24 00:52:53;;;;;;;7.03;4.00;;;;;;;12.32;76.43;99205.69;5124621;28;20553;-95
2021/09/24 00:55:19;;;;;;;7.72;4.03;;;;;;;12.01;77.34;99159.41;5123463;28;20107;-96
2021/09/24 00:57:46;;;;;;;5.85;4.30;;;;;;;12.08;76.89;99171.69;5124587;28;20042;-95
2021/09/24 01:00:13;;;;;;;6.55;4.00;;;;;;;11.95;77.22;99159.56;5124001;28;20040;-96
2021/09/24 01:02:39;;;;;;;7.22;4.38;;;;;;;12.03;75.53;99166.44;5122022;28;20134;-96
2021/09/24 01:05:09;;;;;;;6.90;4.47;;;;;;;12.04;75.71;99165.56;5123912;28;20039;-96
2021/09/24 01:07:35;;;;;;;8.30;4.38;;;;;;;11.99;75.71;99162.16;5123983;28;20042;-96
2021/09/24 01:10:02;;;;;;;10.07;4.28;;;;;;;11.97;75.85;99152.41;5124232;28;20043;-94
2021/09/24 01:12:28;;;;;;;7.70;4.70;;;;;;;12.04;76.27;99168.22;5123989;28;20072;-95
2021/09/24 01:14:59;;;;;;;7.15;4.07;;;;;;;11.89;76.54;99155.28;5124169;28;20044;-94
2021/09/24 01:17:25;;;;;;;8.90;4.30;;;;;;;11.90;77.23;99170.34;5123297;28;20090;-96
2021/09/24 01:19:51;;;;;;;7.72;4.53;;;;;;;11.88;77.27;99172.19;5123465;28;20086;-95
2021/09/24 01:22:18;;;;;;;6.93;4.60;;;;;;;11.94;78.30;99181.81;5123622;28;20119;-96
2021/09/24 01:24:44;;;;;;;8.25;4.72;;;;;;;11.78;78.77;99165.34;5123049;28;20044;-95
2021/09/24 01:27:11;;;;;;;9.43;4.45;;;;;;;11.99;78.80;99185.22;5124166;28;20107;-96
2021/09/24 01:29:37;;;;;;;7.95;4.78;;;;;;;11.72;78.52;99143.25;5124996;28;20067;-94
2021/09/24 01:32:03;;;;;;;7.53;4.60;;;;;;;11.83;78.63;99168.75;5123293;28;20040;-95
2021/09/24 01:34:29;;;;;;;8.30;4.32;;;;;;;11.89;78.62;99173.94;5139054;28;20424;-96
2021/09/24 01:36:56;;;;;;;7.45;4.60;;;;;;;11.75;78.11;99155.59;5144059;28;20050;-96
2021/09/24 01:39:23;;;;;;;7.63;4.55;;;;;;;11.71;77.66;99151.28;5144695;28;20046;-95
2021/09/24 01:41:50;;;;;;;8.00;4.32;;;;;;;11.66;78.16;99146.06;5145225;27;20051;-95
2021/09/24 01:44:16;;;;;;;7.07;4.55;;;;;;;11.64;78.79;99158.53;5147087;27;20496;-95
2021/09/24 01:46:44;;;;;;;7.93;4.68;;;;;;;11.61;78.29;99153.31;5148378;27;20043;-96
2021/09/24 01:49:11;;;;;;;10.30;4.70;;;;;;;11.57;78.64;99151.63;5147762;27;20047;-95
2021/09/24 01:51:40;;;;;;;6.68;4.47;;;;;;;11.71;79.04;99185.94;5147670;27;20039;-94
2021/09/24 01:54:08;;;;;;;9.27;4.50;;;;;;;11.70;79.10;99185.03;5147584;27;20065;-96
2021/09/24 01:56:35;;;;;;;7.18;3.88;;;;;;;11.55;79.83;99158.78;5140512;27;20039;-96
2021/09/24 01:59:01;;;;;;;7.05;4.32;;;;;;;11.49;79.67;99145.59;5126672;28;20048;-93
2021/09/24 02:01:27;;;;;;;8.75;3.88;;;;;;;11.72;79.46;99175.22;5127323;28;20051;-95
2021/09/24 02:03:53;;;;;;;6.32;4.05;;;;;;;11.71;79.11;99170.81;5126373;28;20073;-94
2021/09/24 02:06:19;;;;;;;7.57;4.57;;;;;;;11.53;79.21;99147.28;5126456;28;20051;-95
2021/09/24 02:08:45;;;;;;;8.23;4.40;;;;;;;11.60;79.52;99159.56;5127338;28;20512;-94
2021/09/24 02:11:11;;;;;;;8.77;4.20;;;;;;;11.46;79.24;99140.38;5127911;28;20042;-95
2021/09/24 02:13:40;;;;;;;8.63;4.40;;;;;;;11.57;79.99;99164.06;5126636;28;20058;-95
2021/09/24 02:16:06;;;;;;;7.32;4.18;;;;;;;11.55;79.87;99166.75;5126609;28;20043;-95
2021/09/24 02:18:32;;;;;;;8.75;4.20;;;;;;;11.47;79.72;99156.31;5126117;28;20039;-95
2021/09/24 02:20:58;;;;;;;7.95;4.80;;;;;;;11.56;78.63;99168.53;5126106;28;20048;-96
2021/09/24 02:23:27;;;;;;;8.52;4.18;;;;;;;11.53;78.67;99152.59;5126939;28;20047;-95
2021/09/24 02:25:53;;;;;;;8.57;4.60;;;;;;;11.50;79.44;99147.38;5126327;28;20102;-94
2021/09/24 02:28:19;;;;;;;9.38;4.63;;;;;;;11.47;79.91;99142.09;5125753;28;20071;-94
2021/09/24 02:30:46;;;;;;;9.07;4.40;;;;;;;11.48;80.19;99146.53;5125399;28;20498;-94
2021/09/24 02:33:12;;;;;;;9.50;4.22;;;;;;;11.51;79.49;99150.00;5126058;28;20048;-95
2021/09/24 02:35:38;;;;;;;6.57;4.00;;;;;;;11.52;77.97;99137.56;5124787;28;20142;-94
2021/09/24 02:38:05;;;;;;;7.15;4.05;;;;;;;11.83;76.47;99161.63;5125599;28;20126;-96
2021/09/24 02:40:34;;;;;;;6.20;4.07;;;;;;;12.09;76.54;99171.63;5126908;28;20044;-95
2021/09/24 02:43:00;;;;;;;7.75;4.45;;;;;;;12.02;75.47;99147.84;5127941;28;20082;-94
2021/09/24 02:45:26;;;;;;;7.82;4.13;;;;;;;11.97;76.38;99145.31;5126123;28;20054;-95
2021/09/24 02:47:54;;;;;;;8.70;4.78;;;;;;;11.94;76.61;99153.38;5126773;28;20111;-94
2021/09/24 02:50:20;;;;;;;6.88;4.30;;;;;;;11.89;76.71;99150.84;5126671;28;20071;-95
2021/09/24 02:52:46;;;;;;;6.78;4.03;;;;;;;11.75;77.08;99149.41;5126861;28;20050;-93
2021/09/24 02:55:14;;;;;;;7.63;4.25;;;;;;;11.70;76.99;99150.41;5126483;28;20039;-95
2021/09/24 02:57:40;;;;;;;9.38;5.05;;;;;;;11.59;77.49;99155.13;5127443;28;20397;-93
2021/09/24 03:00:08;;;;;;;6.82;4.70;;;;;;;11.51;78.41;99167.75;5125931;28;20104;-96
2021/09/24 03:05:37;;;;;;;7.15;4.22;;;;;;;11.42;79.06;99165.31;5100634;27;20885;-94
2021/09/24 03:08:04;;;;;;;6.55;4.13;;;;;;;11.30;79.86;99154.06;5098879;28;20044;-94
2021/09/24 03:10:30;;;;;;;9.73;4.40;;;;;;;11.27;80.05;99161.22;5099632;28;20048;-95
2021/09/24 03:12:56;;;;;;;8.45;4.60;;;;;;;11.27;80.34;99169.22;5099112;28;20062;-96
2021/09/24 03:15:22;;;;;;;8.13;4.07;;;;;;;11.27;80.66;99170.09;5099079;28;20498;-95
2021/09/24 03:17:48;;;;;;;7.10;4.30;;;;;;;11.19;80.31;99158.78;5099399;28;20114;-96
2021/09/24 03:20:14;;;;;;;8.18;4.60;;;;;;;11.13;81.00;99158.03;5101865;28;20051;-96
2021/09/24 03:22:42;;;;;;;7.10;4.20;;;;;;;11.16;80.89;99184.56;5100812;28;20101;-95
2021/09/24 03:25:09;;;;;;;8.43;4.40;;;;;;;11.07;81.16;99169.69;5100444;28;20543;-96
2021/09/24 03:27:36;;;;;;;6.13;4.40;;;;;;;11.01;81.49;99165.38;5099826;28;20040;-96
2021/09/24 03:30:04;;;;;;;9.23;4.22;;;;;;;11.12;81.34;99186.41;5100362;28;20076;-96
2021/09/24 03:32:31;;;;;;;10.88;4.60;;;;;;;10.93;81.90;99166.44;5099201;28;20134;-96
2021/09/24 03:34:57;;;;;;;7.88;4.28;;;;;;;10.99;82.21;99172.50;5101640;28;20438;-95
2021/09/24 03:37:23;;;;;;;9.02;4.93;;;;;;;10.92;82.13;99168.25;5101692;28;20040;-96
2021/09/24 03:39:50;;;;;;;8.05;4.70;;;;;;;10.93;82.28;99174.44;5101361;28;20105;-95
2021/09/24 03:42:16;;;;;;;7.47;4.50;;;;;;;10.89;82.14;99176.31;5101651;28;20049;-95
2021/09/24 03:44:42;;;;;;;8.15;4.68;;;;;;;10.83;81.73;99179.09;5102651;28;20047;-96
2021/09/24 03:47:09;;;;;;;9.10;4.47;;;;;;;10.92;81.97;99193.97;5101437;28;20055;-95
2021/09/24 03:49:35;;;;;;;8.40;5.10;;;;;;;10.73;82.25;99182.84;5101067;28;20044;-96
2021/09/24 03:52:02;;;;;;;7.15;4.28;;;;;;;10.83;82.38;99219.88;5101883;28;20048;-95
2021/09/24 03:54:28;;;;;;;9.50;5.22;;;;;;;10.67;83.35;99182.06;5101445;28;20150;-96
2021/09/24 03:56:56;;;;;;;8.13;4.50;;;;;;;10.66;82.79;99185.63;5101886;28;20047;-96
2021/09/24 03:59:22;;;;;;;11.13;5.10;;;;;;;10.63;83.37;99182.19;5101825;28;20141;-96
2021/09/24 04:01:51;;;;;;;8.45;4.63;;;;;;;10.63;82.99;99188.38;5101162;28;20406;-96
2021/09/24 04:04:17;;;;;;;8.75;4.60;;;;;;;10.51;83.79;99190.38;5101033;28;20056;-96
2021/09/24 04:06:43;;;;;;;7.90;4.93;;;;;;;10.48;84.13;99196.66;5102906;28;20051;-96
2021/09/24 04:09:10;;;;;;;11.48;5.00;;;;;;;10.50;83.45;99189.53;5103307;28;20048;-96
2021/09/24 04:11:36;;;;;;;11.55;5.47;;;;;;;10.46;83.41;99190.50;5102672;28;20379;-95
2021/09/24 04:14:04;;;;;;;8.02;4.82;;;;;;;10.47;83.78;99201.09;5100653;28;20051;-95
2021/09/24 04:16:30;;;;;;;8.60;4.70;;;;;;;10.39;84.04;99192.41;5088569;28;20098;-95
2021/09/24 04:18:56;;;;;;;9.00;5.32;;;;;;;10.61;84.68;99234.53;5086941;28;20041;-96
2021/09/24 04:21:28;;;;;;;8.82;5.22;;;;;;;10.47;84.31;99211.75;5086855;28;20074;-96
2021/09/24 04:23:54;;;;;;;7.72;4.63;;;;;;;10.49;84.44;99222.31;5086804;28;20036;-95
2021/09/24 04:26:22;;;;;;;7.07;4.50;;;;;;;10.37;84.51;99198.66;5086305;28;20048;-96
2021/09/24 04:28:49;;;;;;;8.68;4.82;;;;;;;10.50;84.88;99225.88;5086030;28;20041;-96
2021/09/24 04:31:17;;;;;;;10.05;5.03;;;;;;;10.60;84.54;99240.72;5087254;28;20040;-95
2021/09/24 04:33:43;;;;;;;11.35;4.80;;;;;;;10.47;84.94;99202.88;5087460;28;20063;-96
2021/09/24 04:36:09;;;;;;;7.88;4.95;;;;;;;10.36;85.28;99189.78;5085636;28;20054;-96
2021/09/24 04:38:35;;;;;;;8.50;4.82;;;;;;;10.36;85.29;99187.13;5085806;28;20486;-96
2021/09/24 04:41:01;;;;;;;8.80;4.88;;;;;;;10.38;85.43;99192.41;5086795;28;20048;-96
2021/09/24 04:43:27;;;;;;;10.57;4.78;;;;;;;10.60;85.39;99228.28;5087888;28;20060;-96
2021/09/24 04:45:53;;;;;;;7.80;5.22;;;;;;;10.43;85.03;99196.75;5086652;28;20101;-95
2021/09/24 04:48:21;;;;;;;8.32;5.15;;;;;;;10.44;84.45;99192.31;5086183;28;20068;-95
2021/09/24 04:50:47;;;;;;;10.57;5.50;;;;;;;10.55;84.23;99213.34;5086123;28;20048;-96
2021/09/24 04:53:13;;;;;;;9.05;5.25;;;;;;;10.51;84.43;99216.97;5086733;28;20033;-95
2021/09/24 04:55:39;;;;;;;7.85;5.35;;;;;;;10.30;84.44;99191.69;5087392;28;20108;-96
2021/09/24 04:58:05;;;;;;;9.88;5.07;;;;;;;10.32;84.26;99198.72;5086359;28;20099;-95
2021/09/24 05:00:31;;;;;;;10.20;5.38;;;;;;;10.43;85.45;99233.06;5084367;28;20130;-96
2021/09/24 05:02:57;;;;;;;11.48;5.68;;;;;;;10.23;85.32;99196.22;5085494;28;20498;-96
2021/09/24 05:05:24;;;;;;;12.90;5.65;;;;;;;10.25;85.61;99200.59;5084815;28;20055;-95
2021/09/24 05:07:53;;;;;;;10.70;5.75;;;;;;;10.43;85.43;99233.06;5084974;28;20048;-95
2021/09/24 05:10:19;;;;;;;8.77;5.32;;;;;;;10.28;85.47;99208.50;5085900;28;20037;-95
2021/09/24 05:12:45;;;;;;;12.32;5.70;;;;;;;10.28;85.39;99203.19;5084896;28;20102;-95
2021/09/24 05:15:12;;;;;;;8.20;4.95;;;;;;;10.44;85.74;99225.06;5086946;28;20032;-95
2021/09/24 05:17:38;;;;;;;10.13;5.95;;;;;;;10.34;85.25;99194.25;5087888;28;20082;-95
2021/09/24 05:20:05;;;;;;;7.13;4.68;;;;;;;10.41;85.74;99208.28;5087772;28;20070;-94
2021/09/24 05:22:33;;;;;;;8.23;4.90;;;;;;;10.39;85.33;99195.06;5087929;28;20080;-95
2021/09/24 05:24:59;;;;;;;12.00;5.72;;;;;;;10.42;85.15;99192.31;5087715;28;20044;-95
2021/09/24 05:27:25;;;;;;;8.75;5.78;;;;;;;10.65;84.43;99214.94;5087153;28;20079;-95
2021/09/24 05:29:51;;;;;;;9.18;5.15;;;;;;;10.68;84.86;99210.41;5085629;28;20050;-95
2021/09/24 05:32:17;;;;;;;10.80;5.50;;;;;;;10.72;84.36;99205.03;5084832;28;20127;-95
2021/09/24 05:34:44;;;;;;;16.55;6.30;;;;;;;10.83;83.58;99222.53;5085449;28;20517;-96
2021/09/24 05:37:11;;;;;;;9.23;5.43;;;;;;;10.79;83.18;99204.00;5087860;28;20182;-95
2021/09/24 05:39:41;;;;;;;8.57;5.72;;;;;;;10.84;82.88;99200.34;5088061;28;20040;-95
2021/09/24 05:42:07;;;;;;;13.15;6.22;;;;;;;11.00;82.70;99221.31;5086970;28;20127;-95
2021/09/24 05:44:34;;;;;;;13.05;5.30;;;;;;;10.99;83.21;99214.22;5085319;28;20056;-94
2021/09/24 05:47:00;;;;;;;13.95;6.38;;;;;;;11.08;82.58;99219.31;5086822;28;20060;-94
2021/09/24 05:49:29;;;;;;;14.52;6.22;;;;;;;10.99;82.74;99192.94;5087630;28;20053;-94
2021/09/24 05:51:56;;;;;;;10.70;5.88;;;;;;;11.08;82.34;99203.34;5087036;28;20123;-96
2021/09/24 05:54:22;;;;;;;11.30;5.90;;;;;;;11.16;81.45;99187.22;5086786;28;20106;-95
2021/09/24 05:56:51;;;;;;;11.52;5.93;;;;;;;11.44;81.56;99227.41;5087320;28;20444;-96
2021/09/24 05:59:17;;;;;;;11.23;5.50;;;;;;;11.46;81.25;99205.16;5085876;28;20525;-95
2021/09/24 06:01:45;;;;;;;11.10;5.88;;;;;;;11.65;80.35;99210.91;5084095;28;20052;-95
2021/09/24 06:04:11;;;;;;;11.32;5.70;;;;;;;11.92;79.21;99225.38;5081528;28;20047;-95
2021/09/24 06:06:36;;;;;;;10.52;6.10;;;;;;;12.03;78.80;99206.44;5079508;28;20040;-94
2021/09/24 06:09:03;;;;;;;9.75;6.10;;;;;;;12.21;78.25;99225.53;5080761;28;20055;-96
2021/09/24 06:11:28;;;;;;;11.00;5.90;;;;;;;12.39;77.58;99227.72;5080500;28;20056;-95
2021/09/24 06:13:56;;;;;;;13.05;6.05;;;;;;;12.40;77.01;99210.78;5081165;28;20040;-95
2021/09/24 06:16:22;;;;;;;9.18;5.53;;;;;;;12.64;76.92;99219.94;5083501;28;20040;-95
2021/09/24 06:18:51;;;;;;;11.10;5.78;;;;;;;12.71;76.38;99201.94;5084719;28;20041;-95
2021/09/24 06:21:18;;;;;;;10.90;5.35;;;;;;;12.80;76.14;99203.47;5081646;28;20048;-93
2021/09/24 06:23:44;;;;;;;10.77;5.30;;;;;;;13.05;76.00;99230.28;5081846;28;20104;-95
2021/09/24 06:26:14;;;;;;;14.50;5.45;;;;;;;13.04;75.62;99213.41;5084389;28;20053;-94
2021/09/24 06:28:40;;;;;;;10.00;5.45;;;;;;;13.21;75.04;99217.38;5084906;28;20532;-94
2021/09/24 06:31:07;;;;;;;14.10;5.47;;;;;;;13.31;74.69;99211.72;5083367;28;20044;-94
2021/09/24 06:33:34;;;;;;;12.25;5.88;;;;;;;13.42;74.20;99224.72;5084139;28;20055;-94
2021/09/24 06:36:00;;;;;;;9.43;5.47;;;;;;;13.53;73.55;99219.94;5083261;28;20032;-94
2021/09/24 06:38:27;;;;;;;11.20;6.40;;;;;;;13.73;73.33;99234.47;5084224;28;20040;-94
2021/09/24 06:40:53;;;;;;;9.68;5.43;;;;;;;13.82;72.37;99209.22;5083292;28;20131;-94
2021/09/24 06:43:19;;;;;;;8.63;5.00;;;;;;;13.90;72.33;99221.41;5081607;28;20048;-95
2021/09/24 06:45:46;;;;;;;9.90;5.05;;;;;;;14.02;70.91;99225.47;5078945;28;20052;-95
2021/09/24 06:48:13;;;;;;;10.20;5.00;;;;;;;14.24;70.12;99256.84;5079148;28;20036;-94
2021/09/24 06:50:39;;;;;;;7.80;4.60;;;;;;;14.21;68.70;99224.84;5080233;28;20060;-95
2021/09/24 06:53:05;;;;;;;8.70;4.57;;;;;;;14.36;68.65;99227.00;5083636;28;20063;-95
2021/09/24 06:55:31;;;;;;;6.88;4.05;;;;;;;14.64;67.14;99226.00;5083066;28;20040;-95
2021/09/24 06:57:58;;;;;;;6.13;3.85;;;;;;;14.81;66.74;99231.63;5072544;28;20067;-95
2021/09/24 07:00:25;;;;;;;7.88;4.55;;;;;;;15.16;66.33;99266.97;5078826;28;20049;-93
2021/09/24 07:02:51;;;;;;;7.97;4.35;;;;;;;15.30;64.60;99228.91;5082240;28;20398;-96
2021/09/24 07:05:19;;;;;;;5.97;3.60;;;;;;;15.53;63.27;99233.38;5075875;28;20051;-95
2021/09/24 07:07:45;;;;;;;7.07;4.40;;;;;;;15.55;63.60;99212.75;5077300;28;20036;-96
2021/09/24 07:10:12;;;;;;;7.15;4.65;;;;;;;15.71;64.21;99229.97;5078491;28;20124;-95
2021/09/24 07:12:38;;;;;;;10.15;4.65;;;;;;;15.79;64.74;99219.81;5078832;28;20402;-93
2021/09/24 07:15:05;;;;;;;7.65;4.38;;;;;;;15.94;64.59;99229.03;5079553;28;20041;-96
2021/09/24 07:17:31;;;;;;;9.85;4.90;;;;;;;16.09;64.10;99232.00;5078163;28;20045;-94
2021/09/24 07:19:57;;;;;;;8.73;5.35;;;;;;;16.20;64.52;99244.03;5078078;28;20109;-96
2021/09/24 07:22:24;;;;;;;8.32;5.05;;;;;;;16.26;64.03;99252.75;5079366;28;20629;-95
2021/09/24 07:24:50;;;;;;;8.18;5.13;;;;;;;16.27;64.90;99238.41;5078534;28;20041;-95
2021/09/24 07:27:16;;;;;;;10.52;5.25;;;;;;;16.54;64.04;99236.31;5078463;28;20041;-96
2021/09/24 07:29:42;;;;;;;6.65;4.47;;;;;;;16.65;63.42;99217.91;5079500;28;20068;-95
2021/09/24 07:32:10;;;;;;;9.05;4.72;;;;;;;16.84;63.23;99229.59;5076547;28;20416;-94
2021/09/24 07:34:39;;;;;;;9.38;4.80;;;;;;;17.03;62.06;99231.47;5076283;28;20048;-96
2021/09/24 07:37:08;;;;;;;10.85;4.93;;;;;;;17.12;61.57;99211.34;5075410;28;20120;-94
2021/09/24 07:39:36;;;;;;;8.73;5.07;;;;;;;17.29;61.13;99222.19;5075072;28;20044;-94
2021/09/24 07:42:02;;;;;;;8.52;5.00;;;;;;;17.36;60.18;99218.25;5079157;28;20051;-95
2021/09/24 07:44:28;;;;;;;7.78;5.18;;;;;;;17.38;59.64;99216.38;5075431;28;20075;-94
2021/09/24 07:46:55;;;;;;;8.07;4.95;;;;;;;17.41;59.79;99215.34;5074681;28;20056;-95
2021/09/24 07:49:21;;;;;;;8.73;5.05;;;;;;;17.56;58.69;99232.56;5074762;28;20048;-93
2021/09/24 07:51:48;;;;;;;9.60;5.10;;;;;;;17.49;59.17;99207.78;5078120;28;20116;-94
2021/09/24 07:54:14;;;;;;;8.07;4.60;;;;;;;17.73;58.56;99229.91;5077842;28;20061;-95
2021/09/24 07:56:42;;;;;;;8.93;4.88;;;;;;;17.84;58.07;99241.06;5078371;28;20056;-93
2021/09/24 07:59:08;;;;;;;7.90;4.60;;;;;;;17.89;57.50;99226.50;5078124;28;20032;-94
2021/09/24 08:01:33;;;;;;;10.07;5.18;;;;;;;17.98;57.52;99229.63;5077876;28;20562;-95
2021/09/24 08:03:59;;;;;;;9.88;4.80;;;;;;;18.08;57.00;99230.00;5079628;28;20049;-94
2021/09/24 08:06:25;;;;;;;9.38;5.07;;;;;;;18.17;56.50;99239.44;5080543;28;20044;-95
2021/09/24 08:08:51;;;;;;;8.23;4.40;;;;;;;18.19;56.51;99233.03;5080211;28;20173;-95
2021/09/24 08:11:17;;;;;;;8.80;4.57;;;;;;;18.29;57.09;99221.81;5081003;28;20036;-94
2021/09/24 08:13:44;;;;;;;10.93;5.05;;;;;;;18.41;56.78;99229.22;5081954;28;20036;-94
2021/09/24 08:16:10;;;;;;;8.40;5.15;;;;;;;18.39;57.04;99217.66;5080441;28;20044;-94
2021/09/24 08:18:37;;;;;;;8.25;5.13;;;;;;;18.58;55.58;99218.44;5082053;28;20102;-94
2021/09/24 08:21:03;;;;;;;9.40;5.13;;;;;;;18.64;56.24;99241.50;5081051;28;20036;-95
2021/09/24 08:23:30;;;;;;;8.82;4.80;;;;;;;18.50;57.31;99227.88;5074567;28;20057;-96
2021/09/24 08:25:56;;;;;;;11.52;6.30;;;;;;;18.63;56.81;99221.78;5080541;28;20066;-94
2021/09/24 08:28:22;;;;;;;10.75;5.63;;;;;;;18.81;56.94;99214.56;5081291;28;20079;-94
2021/09/24 08:30:49;;;;;;;8.40;4.90;;;;;;;19.02;56.97;99238.63;5079323;28;20043;-95
2021/09/24 08:33:15;;;;;;;9.82;4.88;;;;;;;19.09;56.21;99235.50;5080852;28;20047;-93
2021/09/24 08:35:42;;;;;;;7.07;4.55;;;;;;;18.99;56.23;99231.56;5080661;28;20596;-95
2021/09/24 08:38:08;;;;;;;7.05;4.45;;;;;;;19.23;56.22;99236.56;5079264;28;20068;-93
2021/09/24 08:40:35;;;;;;;9.35;4.47;;;;;;;19.37;56.43;99228.59;5079807;28;20094;-94
2021/09/24 08:43:01;;;;;;;9.10;4.53;;;;;;;19.54;55.54;99254.63;5079904;28;20037;-95
2021/09/24 08:45:28;;;;;;;7.60;5.00;;;;;;;19.45;55.53;99218.25;5078486;28;20051;-94
2021/09/24 08:47:56;;;;;;;9.20;5.10;;;;;;;19.54;55.33;99216.88;5079083;28;20052;-93
2021/09/24 08:50:23;;;;;;;10.82;5.10;;;;;;;19.69;55.86;99242.09;5079411;28;20100;-95
2021/09/24 08:52:50;;;;;;;7.32;4.85;;;;;;;19.87;55.87;99242.91;5078095;28;20048;-94
2021/09/24 08:55:16;;;;;;;6.65;4.50;;;;;;;20.03;55.65;99229.38;5079858;28;20041;-93
2021/09/24 08:57:43;;;;;;;10.90;5.28;;;;;;;20.25;54.96;99229.84;5079039;28;20040;-92
2021/09/24 09:00:10;;;;;;;9.30;5.00;;;;;;;20.38;55.48;99235.38;5077312;28;20398;-95
2021/09/24 09:02:52;;;;;;;9.00;4.82;;;;;;;20.52;55.60;99243.53;5078229;28;20046;-94
2021/09/24 09:05:20;;;;;;;8.93;4.93;;;;;;;20.35;55.88;99232.03;5076284;28;20141;-93
2021/09/24 09:07:46;;;;;;;8.55;4.82;;;;;;;20.32;54.88;99227.69;5077263;28;20502;-95
2021/09/24 09:10:12;;;;;;;8.85;5.47;;;;;;;20.35;55.07;99213.97;5079156;28;20078;-93
2021/09/24 09:12:38;;;;;;;8.80;5.40;;;;;;;20.63;54.58;99215.91;5081064;28;20041;-94
2021/09/24 09:15:08;;;;;;;6.55;4.70;;;;;;;20.71;54.76;99202.78;5080249;28;20071;-96
2021/09/24 09:17:35;;;;;;;15.93;5.35;;;;;;;20.86;55.16;99206.38;5079115;28;20040;-95
2021/09/24 09:20:18;;;;;;;10.32;5.15;;;;;;;20.74;56.21;99211.69;5080342;28;20109;-94
2021/09/24 09:22:46;;;;;;;10.20;5.38;;;;;;;20.90;55.15;99198.94;5080356;28;20033;-95
2021/09/24 09:25:22;;;;;;;8.90;5.10;;;;;;;21.09;54.68;99199.50;5079588;28;20071;-95
2021/09/24 09:27:48;;;;;;;10.27;5.50;;;;;;;21.29;54.41;99205.47;5078690;28;20036;-95
2021/09/24 09:30:17;;;;;;;8.00;5.22;;;;;;;21.34;54.40;99201.53;5077686;28;20068;-94
2021/09/24 09:32:45;;;;;;;10.43;5.28;;;;;;;21.10;54.45;99193.16;5077944;28;20112;-95
2021/09/24 09:35:12;;;;;;;10.50;5.78;;;;;;;21.30;54.68;99189.16;5079166;28;20048;-95
2021/09/24 09:37:39;;;;;;;10.90;5.50;;;;;;;21.54;54.15;99202.09;5080182;28;20075;-94
2021/09/24 09:40:10;;;;;;;7.68;5.30;;;;;;;21.65;53.74;99190.56;5079096;28;20047;-96
2021/09/24 09:42:39;;;;;;;8.88;5.25;;;;;;;21.54;53.18;99175.03;5076469;28;20071;-93
2021/09/24 09:45:07;;;;;;;10.57;5.55;;;;;;;21.66;54.26;99186.88;5078336;28;20041;-95
2021/09/24 09:47:38;;;;;;;13.23;5.80;;;;;;;21.67;52.85;99186.78;5079524;28;20401;-93
2021/09/24 09:50:10;;;;;;;10.52;5.53;;;;;;;21.65;53.59;99182.44;5078297;28;20036;-93
2021/09/24 09:53:01;;;;;;;8.52;5.10;;;;;;;21.98;52.48;99200.13;5078253;28;20043;-96
2021/09/24 09:55:32;;;;;;;10.90;5.53;;;;;;;21.99;52.11;99193.72;5072009;28;20032;-94
2021/09/24 09:58:00;;;;;;;7.78;5.22;;;;;;;22.11;51.50;99190.19;5078381;28;20056;-95
2021/09/24 10:00:26;;;;;;;10.25;5.57;;;;;;;21.77;51.82;99178.03;5075805;28;20041;-94
2021/09/24 10:03:05;;;;;;;11.18;5.60;;;;;;;21.18;52.74;99179.13;5075088;28;20047;-96
2021/09/24 10:05:37;;;;;;;10.10;5.95;;;;;;;21.20;52.93;99171.78;5078131;28;20055;-96
2021/09/24 10:08:22;;;;;;;10.30;5.75;;;;;;;21.36;52.76;99179.78;5077258;28;20119;-93
2021/09/24 10:11:00;;;;;;;9.15;5.30;;;;;;;21.77;51.94;99181.63;5078507;28;20075;-95
2021/09/24 10:13:28;;;;;;;10.18;5.38;;;;;;;21.99;51.30;99193.72;5077418;28;20123;-94
2021/09/24 10:15:55;;;;;;;9.87;5.77;;;;;;;22.02;50.67;99174.56;5074795;28;20036;-94
2021/09/24 10:18:21;;;;;;;8.25;5.53;;;;;;;22.27;50.37;99174.66;5076498;28;20044;-93
2021/09/24 10:20:47;;;;;;;9.88;5.07;;;;;;;22.33;49.68;99157.97;5077025;28;20037;-94
2021/09/24 10:23:14;;;;;;;9.63;4.68;;;;;;;22.46;48.90;99176.09;5076884;28;20040;-93
2021/09/24 10:25:42;;;;;;;8.43;4.78;;;;;;;22.56;49.83;99177.19;5077823;28;20033;-92
2021/09/24 10:28:12;;;;;;;8.23;4.65;;;;;;;22.43;50.22;99173.59;5078256;28;20048;-95
2021/09/24 10:30:38;;;;;;;8.93;4.82;;;;;;;22.42;49.84;99161.03;5074050;28;20036;-93
2021/09/24 10:33:08;;;;;;;9.93;4.90;;;;;;;22.32;49.24;99148.13;5075303;28;20593;-93
2021/09/24 10:35:52;;;;;;;8.07;4.90;;;;;;;22.42;50.03;99169.16;5076100;28;20033;-94
2021/09/24 10:38:20;;;;;;;9.23;5.35;;;;;;;22.21;50.05;99164.22;5070309;28;20049;-95
2021/09/24 10:41:03;;;;;;;12.65;4.95;;;;;;;22.37;50.17;99165.91;5074656;28;20386;-94
2021/09/24 10:43:42;;;;;;;7.60;4.68;;;;;;;22.50;50.15;99164.06;5075098;28;20072;-93
2021/09/24 10:46:30;;;;;;;9.50;5.03;;;;;;;22.62;49.57;99160.50;5074594;28;20046;-95
2021/09/24 10:49:29;;;;;;;6.77;4.70;;;;;;;22.76;48.73;99157.66;5075317;28;20132;-94
2021/09/24 10:52:11;;;;;;;6.55;4.47;;;;;;;22.73;49.00;99157.03;5064702;28;20947;-93
2021/09/24 10:54:58;;;;;;;6.15;4.57;;;;;;;22.70;49.60;99141.81;5073981;28;20089;-95
2021/09/24 10:57:29;;;;;;;8.65;5.05;;;;;;;22.83;49.24;99143.69;5074292;28;20045;-93
2021/09/24 11:00:24;;;;;;;7.65;4.22;;;;;;;22.93;49.38;99132.06;5060799;28;20044;-94
2021/09/24 11:03:08;;;;;;;7.93;4.53;;;;;;;22.97;49.13;99133.56;5074969;28;20040;-93
2021/09/24 11:05:56;;;;;;;7.50;4.60;;;;;;;22.87;48.33;99118.06;5075640;28;20047;-95
2021/09/24 11:08:39;;;;;;;9.05;4.80;;;;;;;22.79;49.23;99139.44;5076460;28;20045;-94
2021/09/24 11:11:06;;;;;;;8.90;4.88;;;;;;;22.90;49.47;99145.84;5076115;28;20054;-94
2021/09/24 11:13:34;;;;;;;8.15;4.90;;;;;;;22.77;49.49;99129.59;5076390;28;20510;-95
2021/09/24 11:16:05;;;;;;;10.27;4.47;;;;;;;22.98;49.44;99135.28;5075532;28;20045;-93
2021/09/24 11:18:48;;;;;;;8.85;4.68;;;;;;;22.96;48.11;99111.97;5075811;28;20145;-96
2021/09/24 11:21:14;;;;;;;6.95;4.60;;;;;;;23.08;48.22;99132.81;5076857;28;20063;-94
2021/09/24 11:23:41;;;;;;;7.10;4.28;;;;;;;23.20;48.71;99125.63;5075966;28;20043;-94
2021/09/24 11:26:13;;;;;;;7.72;4.50;;;;;;;23.24;48.44;99108.13;5078586;28;20040;-95
2021/09/24 11:28:40;;;;;;;8.93;5.40;;;;;;;23.33;48.22;99103.88;5078990;28;20040;-95
2021/09/24 11:31:07;;;;;;;10.20;4.53;;;;;;;23.44;47.72;99116.66;5078211;28;20048;-95
2021/09/24 11:33:49;;;;;;;7.82;4.70;;;;;;;23.43;47.41;99083.22;5081320;28;20106;-93
2021/09/24 11:36:54;;;;;;;6.45;4.00;;;;;;;23.64;47.65;99090.72;5073349;28;20044;-94
2021/09/24 11:39:22;;;;;;;7.40;4.43;;;;;;;23.72;47.65;99094.56;5075990;28;20036;-95